Time;durP1;ratioP1;P1;durP2;ratioP2;P2;SDS_P1;SDS_P2;PMS_P1;PMS_P2;Temp;Humidity;BMP_temperature;BMP_pressure;BME280_temperature;BME280_humidity;BME280_pressure;Samples;Min_cycle;Max_cycle;Signal;HPM_P1;HPM_P2
2022/08/05 00:01:16;;;;;;;9.38;2.08;;;;;;;21.78;72.44;99638.50;5044627;28;20431;-78
2022/08/05 00:03:42;;;;;;;;;;;;;;;21.78;73.17;99646.81;5044942;28;20507;-78
2022/08/05 00:06:07;;;;;;;5.05;2.47;;;;;;;21.83;72.76;99647.78;5045362;28;20058;-81
2022/08/05 00:08:33;;;;;;;7.47;2.30;;;;;;;21.90;72.73;99648.88;5048506;28;20029;-84
2022/08/05 00:11:00;;;;;;;5.97;2.67;;;;;;;21.52;73.22;99645.16;5049706;28;20048;-79
2022/08/05 00:13:26;;;;;;;4.53;2.10;;;;;;;21.62;73.41;99638.34;5029678;28;20053;-78
2022/08/05 00:15:51;;;;;;;5.38;2.75;;;;;;;21.72;73.62;99641.88;5032853;28;20743;-83
2022/08/05 00:18:16;;;;;;;4.40;2.22;;;;;;;21.64;73.46;99638.03;5050559;28;20028;-88
2022/08/05 00:20:41;;;;;;;4.13;2.30;;;;;;;21.74;72.87;99634.81;5051304;28;20655;-88
2022/08/05 00:23:07;;;;;;;4.43;2.20;;;;;;;21.78;73.17;99630.19;5049737;28;20277;-81
2022/08/05 00:25:32;;;;;;;7.65;2.92;;;;;;;21.68;72.90;99636.19;5047511;28;20344;-81
2022/08/05 00:27:58;;;;;;;6.13;2.25;;;;;;;21.85;72.27;99642.72;5049636;28;20476;-82
2022/08/05 00:30:24;;;;;;;13.38;3.45;;;;;;;21.75;72.75;99636.44;5048656;28;20120;-81
2022/08/05 00:32:49;;;;;;;7.68;2.92;;;;;;;21.43;73.19;99638.91;5049797;28;20033;-83
2022/08/05 00:35:14;;;;;;;5.05;2.55;;;;;;;21.49;73.39;99629.22;5049324;28;20110;-83
2022/08/05 00:37:40;;;;;;;11.70;3.45;;;;;;;21.49;73.07;99632.00;5050559;28;20037;-87
2022/08/05 00:40:05;;;;;;;10.75;2.55;;;;;;;21.65;72.31;99625.78;5049987;28;20040;-88
2022/08/05 00:42:36;;;;;;;8.45;2.30;;;;;;;21.54;72.00;99628.19;5049679;28;20021;-81
2022/08/05 00:45:04;;;;;;;4.28;2.10;;;;;;;21.59;72.34;99622.41;5047805;28;20029;-81
2022/08/05 00:47:29;;;;;;;4.28;2.30;;;;;;;21.70;71.31;99614.47;5048622;28;20499;-81
2022/08/05 00:49:55;;;;;;;6.25;2.92;;;;;;;21.72;72.11;99620.50;5048803;28;20202;-82
2022/08/05 00:52:20;;;;;;;24.55;3.03;;;;;;;21.61;71.73;99622.06;5050280;28;20036;-89
2022/08/05 00:54:45;;;;;;;6.78;2.63;;;;;;;21.57;70.91;99628.31;5050664;28;20036;-89
2022/08/05 00:57:11;;;;;;;6.10;2.40;;;;;;;21.45;70.70;99619.97;5050588;28;20064;-89
2022/08/05 00:59:36;;;;;;;4.63;2.10;;;;;;;21.22;71.67;99625.88;5050233;28;20163;-89
2022/08/05 01:02:02;;;;;;;3.65;2.30;;;;;;;21.36;70.40;99627.56;5049876;28;20507;-82
2022/08/05 01:04:27;;;;;;;5.55;1.75;;;;;;;21.58;70.59;99632.69;5048638;28;20120;-82
2022/08/05 01:06:53;;;;;;;8.30;2.03;;;;;;;21.65;70.51;99631.31;5050033;28;20431;-88
2022/08/05 01:09:18;;;;;;;3.60;1.60;;;;;;;21.58;70.55;99620.81;5049703;28;20270;-87
2022/08/05 01:11:47;;;;;;;7.72;3.28;;;;;;;21.57;71.05;99620.00;5049955;28;20052;-89
2022/08/05 01:14:33;;;;;;;9.35;2.83;;;;;;;21.48;71.99;99621.25;5049548;28;20049;-89
2022/08/05 01:17:20;;;;;;;7.60;2.60;;;;;;;21.34;71.26;99622.34;5049623;28;20055;-83
2022/08/05 01:19:51;;;;;;;5.80;2.58;;;;;;;21.16;72.39;99621.72;5047100;28;20533;-83
2022/08/05 01:22:35;;;;;;;5.20;2.78;;;;;;;21.15;72.82;99622.88;5048330;28;20032;-81
2022/08/05 01:25:24;;;;;;;4.72;2.47;;;;;;;21.07;73.45;99625.38;5047909;28;20040;-81
2022/08/05 01:28:09;;;;;;;6.55;2.58;;;;;;;20.91;74.48;99630.69;5048032;28;20029;-81
2022/08/05 01:30:38;;;;;;;6.78;2.35;;;;;;;20.58;76.13;99642.50;5028031;28;20041;-79
2022/08/05 01:33:07;;;;;;;6.22;2.20;;;;;;;20.49;77.30;99645.34;5027180;28;20172;-78
2022/08/05 01:35:36;;;;;;;8.55;3.53;;;;;;;20.65;76.99;99646.38;5027783;28;20061;-82
2022/08/05 01:38:04;;;;;;;5.90;2.75;;;;;;;20.88;76.49;99645.22;5027487;28;20188;-82
2022/08/05 01:40:31;;;;;;;7.25;2.88;;;;;;;20.88;76.91;99634.97;5048957;28;20124;-87
2022/08/05 01:43:00;;;;;;;9.50;3.30;;;;;;;20.95;76.32;99645.50;5051266;28;20041;-86
2022/08/05 01:45:29;;;;;;;7.60;3.28;;;;;;;20.98;76.56;99655.94;5054189;28;20029;-82
2022/08/05 01:47:58;;;;;;;9.25;3.60;;;;;;;21.04;76.08;99664.84;5049172;28;20033;-83
2022/08/05 01:50:27;;;;;;;9.18;3.65;;;;;;;21.11;75.72;99667.09;5049566;28;20131;-82
2022/08/05 01:52:55;;;;;;;7.32;2.80;;;;;;;21.25;75.66;99658.50;5048043;28;20037;-81
2022/08/05 01:55:22;;;;;;;7.38;2.85;;;;;;;21.29;74.59;99645.56;5048079;28;20029;-87
2022/08/05 01:57:50;;;;;;;5.43;3.08;;;;;;;21.47;75.11;99656.47;5049787;28;20497;-87
2022/08/05 02:00:17;;;;;;;8.00;3.63;;;;;;;21.33;75.58;99659.56;5047519;28;20032;-87
2022/08/05 02:02:50;;;;;;;5.53;3.15;;;;;;;21.26;75.25;99654.56;5049400;28;20025;-87
2022/08/05 02:05:20;;;;;;;9.55;3.92;;;;;;;21.37;75.13;99654.94;5049260;28;20041;-86
2022/08/05 02:07:46;;;;;;;6.57;3.83;;;;;;;21.31;75.43;99664.63;5049437;28;20036;-87
2022/08/05 02:10:11;;;;;;;7.15;2.13;;;;;;;21.30;75.26;99666.59;5048836;28;20037;-87
2022/08/05 02:12:50;;;;;;;18.23;4.45;;;;;;;21.30;74.64;99671.31;5048678;28;20051;-88
2022/08/05 02:15:25;;;;;;;8.80;2.63;;;;;;;21.24;75.60;99667.94;5049078;28;20049;-89
2022/08/05 02:17:57;;;;;;;8.77;2.90;;;;;;;21.21;74.43;99674.19;5048983;28;20491;-88
2022/08/05 02:20:25;;;;;;;6.50;2.83;;;;;;;21.27;75.29;99683.09;5048123;28;20036;-82
2022/08/05 02:23:04;;;;;;;7.57;2.88;;;;;;;21.31;74.65;99695.13;5047019;28;20080;-81
2022/08/05 02:25:40;;;;;;;6.28;3.03;;;;;;;21.22;74.09;99709.88;5047320;28;20032;-83
2022/08/05 02:28:07;;;;;;;7.25;2.58;;;;;;;21.16;74.36;99718.72;5047771;28;20108;-82
2022/08/05 02:30:41;;;;;;;5.93;2.35;;;;;;;21.33;74.11;99724.13;5046613;28;20043;-82
2022/08/05 02:33:08;;;;;;;8.23;3.35;;;;;;;21.40;73.59;99733.88;5047370;28;20112;-82
2022/08/05 02:35:36;;;;;;;7.82;3.90;;;;;;;21.46;73.30;99732.47;5047636;28;20064;-87
2022/08/05 02:38:02;;;;;;;12.55;2.97;;;;;;;21.48;73.80;99738.50;5048595;28;20033;-87
2022/08/05 02:40:28;;;;;;;8.88;3.20;;;;;;;21.45;73.76;99737.25;5048334;28;20124;-86
2022/08/05 02:42:55;;;;;;;12.38;3.20;;;;;;;21.28;73.36;99740.94;5048179;28;20029;-86
2022/08/05 02:45:24;;;;;;;10.05;2.95;;;;;;;21.34;74.00;99738.78;5047113;28;20028;-80
2022/08/05 02:47:52;;;;;;;6.80;3.00;;;;;;;21.38;72.76;99733.41;5045291;28;20509;-79
2022/08/05 02:50:18;;;;;;;7.53;3.08;;;;;;;21.38;73.23;99720.31;5045202;28;20476;-79
2022/08/05 02:52:45;;;;;;;5.13;2.80;;;;;;;21.27;72.60;99722.72;5045651;28;20413;-79
2022/08/05 02:55:12;;;;;;;6.95;2.72;;;;;;;21.39;73.31;99726.69;5045799;28;20486;-78
2022/08/05 02:57:39;;;;;;;6.50;2.65;;;;;;;21.43;74.71;99728.44;5048350;28;20116;-94
2022/08/05 03:00:06;;;;;;;10.35;3.65;;;;;;;21.23;73.38;99733.66;5047107;28;20060;-81
2022/08/05 03:02:36;;;;;;;10.93;3.92;;;;;;;21.32;76.12;99730.00;5046193;28;20067;-81
2022/08/05 03:05:03;;;;;;;10.00;3.83;;;;;;;21.06;75.73;99745.69;5047657;28;20033;-93
2022/08/05 03:07:28;;;;;;;8.80;3.35;;;;;;;21.06;75.85;99745.69;5048015;28;20460;-93
2022/08/05 03:09:56;;;;;;;6.43;3.38;;;;;;;21.09;74.97;99756.09;5046435;28;20044;-92
2022/08/05 03:12:35;;;;;;;6.90;2.90;;;;;;;21.09;75.51;99758.06;5038026;28;20468;-91
2022/08/05 03:15:02;;;;;;;7.45;3.60;;;;;;;21.09;74.18;99761.63;5027590;28;20053;-83
2022/08/05 03:17:27;;;;;;;9.40;4.07;;;;;;;21.00;75.52;99774.75;5042001;28;20063;-83
2022/08/05 03:19:52;;;;;;;8.88;3.85;;;;;;;21.04;74.65;99756.28;5046283;28;20037;-83
2022/08/05 03:22:18;;;;;;;6.75;3.38;;;;;;;21.14;75.23;99749.53;5047296;28;20032;-83
2022/08/05 03:24:45;;;;;;;7.72;4.95;;;;;;;20.95;75.94;99761.06;5047847;28;20079;-86
2022/08/05 03:27:11;;;;;;;8.02;2.65;;;;;;;20.78;75.74;99765.56;5047208;28;20344;-86
2022/08/05 03:29:39;;;;;;;9.50;4.25;;;;;;;20.78;77.33;99757.25;5045560;28;20124;-85
2022/08/05 03:32:06;;;;;;;10.32;3.85;;;;;;;20.59;78.42;99761.25;5046753;28;20037;-90
2022/08/05 03:34:32;;;;;;;8.50;4.18;;;;;;;20.72;78.92;99747.50;5046984;28;20292;-85
2022/08/05 03:36:58;;;;;;;13.80;5.25;;;;;;;20.46;80.30;99695.84;5047738;28;20037;-89
2022/08/05 03:39:23;;;;;;;9.68;4.55;;;;;;;20.16;81.96;99633.78;5046534;28;20154;-87
2022/08/05 03:41:48;;;;;;;9.73;3.15;;;;;;;19.90;83.87;99620.03;5046080;28;20047;-87
2022/08/05 03:44:14;;;;;;;10.33;4.37;;;;;;;19.86;84.89;99641.22;5047303;28;20123;-85
2022/08/05 03:46:39;;;;;;;7.65;3.63;;;;;;;19.72;84.43;99609.06;5046870;28;20323;-85
2022/08/05 03:49:04;;;;;;;7.00;3.78;;;;;;;19.65;84.48;99597.72;5045863;28;20029;-90
2022/08/05 03:51:35;;;;;;;11.27;4.47;;;;;;;19.98;82.84;99587.94;5047410;28;20039;-91
2022/08/05 03:54:13;;;;;;;13.88;4.72;;;;;;;20.10;81.77;99601.09;5047393;28;20032;-80
2022/08/05 03:56:42;;;;;;;11.85;4.47;;;;;;;20.19;82.67;99615.72;5045047;28;20422;-79
2022/08/05 03:59:22;;;;;;;8.55;3.92;;;;;;;20.37;81.13;99621.16;5044262;28;20037;-79
2022/08/05 04:01:49;;;;;;;8.68;3.45;;;;;;;19.94;83.89;99655.03;5044908;28;20054;-79
2022/08/05 04:04:15;;;;;;;11.02;5.03;;;;;;;19.77;84.04;99646.78;5044950;28;20071;-84
2022/08/05 04:06:42;;;;;;;9.85;5.00;;;;;;;19.89;84.41;99660.72;5046182;28;20041;-83
2022/08/05 04:09:08;;;;;;;8.40;3.92;;;;;;;20.00;83.30;99655.66;5046027;28;20033;-90
2022/08/05 04:11:35;;;;;;;8.85;5.50;;;;;;;19.92;82.80;99654.53;5046623;28;20037;-89
2022/08/05 04:14:01;;;;;;;10.15;4.15;;;;;;;20.12;82.66;99663.28;5046463;28;20041;-84
2022/08/05 04:16:27;;;;;;;8.52;5.57;;;;;;;20.06;82.62;99672.88;5047857;28;20033;-84
2022/08/05 04:18:52;;;;;;;7.05;4.22;;;;;;;19.93;83.51;99678.28;5052084;28;20028;-85
2022/08/05 04:21:18;;;;;;;9.20;5.15;;;;;;;19.82;84.59;99688.09;5052510;28;20044;-84
2022/08/05 04:23:43;;;;;;;10.50;4.05;;;;;;;19.79;84.60;99686.00;5049910;28;20033;-83
2022/08/05 04:26:09;;;;;;;9.32;4.88;;;;;;;19.78;84.11;99687.94;5046295;28;20029;-83
2022/08/05 04:28:34;;;;;;;10.45;5.28;;;;;;;19.82;84.02;99694.44;5047023;28;20047;-86
2022/08/05 04:31:00;;;;;;;7.90;4.10;;;;;;;19.93;83.67;99689.34;5048130;28;20025;-87
2022/08/05 04:33:26;;;;;;;14.35;5.63;;;;;;;19.82;84.40;99685.31;5047530;28;20118;-87
2022/08/05 04:35:51;;;;;;;9.18;5.97;;;;;;;19.68;85.29;99689.09;5046423;28;20033;-82
2022/08/05 04:38:17;;;;;;;11.90;4.38;;;;;;;19.63;86.20;99685.69;5045310;28;20379;-82
2022/08/05 04:40:42;;;;;;;8.00;4.15;;;;;;;19.80;84.96;99677.34;5045639;28;20293;-82
2022/08/05 04:43:08;;;;;;;9.38;5.35;;;;;;;19.75;85.77;99673.97;5044927;28;20508;-82
2022/08/05 04:45:35;;;;;;;11.23;4.63;;;;;;;19.88;85.57;99677.66;5046671;28;20028;-85
2022/08/05 04:48:09;;;;;;;8.18;4.53;;;;;;;19.89;85.54;99677.31;5046063;28;20032;-85
2022/08/05 04:50:40;;;;;;;10.15;5.82;;;;;;;19.99;85.42;99683.66;5045514;28;20546;-87
2022/08/05 04:53:06;;;;;;;9.07;4.97;;;;;;;19.99;85.13;99684.47;5047638;28;20067;-87
2022/08/05 04:55:32;;;;;;;9.07;4.70;;;;;;;20.10;85.99;99684.94;5049815;28;20082;-83
2022/08/05 04:57:57;;;;;;;9.48;4.90;;;;;;;20.11;85.09;99686.56;5049825;28;20029;-83
2022/08/05 05:00:22;;;;;;;13.53;7.93;;;;;;;20.23;83.76;99701.66;5049370;28;20044;-85
2022/08/05 05:02:48;;;;;;;8.93;4.40;;;;;;;20.21;83.44;99712.22;5049702;28;20330;-85
2022/08/05 05:05:13;;;;;;;12.27;6.27;;;;;;;20.07;83.36;99707.72;5049523;28;20044;-82
2022/08/05 05:07:38;;;;;;;9.73;4.80;;;;;;;20.26;83.35;99695.44;5049180;28;21167;-82
2022/08/05 05:10:05;;;;;;;8.68;5.40;;;;;;;20.36;83.41;99675.69;5048627;28;20068;-82
2022/08/05 05:12:31;;;;;;;10.68;5.47;;;;;;;20.35;83.30;99684.34;5047772;28;20037;-82
2022/08/05 05:14:56;;;;;;;12.98;6.05;;;;;;;20.21;83.30;99706.69;5049621;28;20053;-83
2022/08/05 05:17:21;;;;;;;11.95;6.63;;;;;;;20.04;83.60;99692.56;5049541;28;20040;-84
2022/08/05 05:19:46;;;;;;;12.13;6.05;;;;;;;20.16;84.40;99694.66;5049094;28;20037;-82
2022/08/05 05:22:12;;;;;;;10.47;6.73;;;;;;;19.95;84.20;99706.41;5048642;28;20039;-83
2022/08/05 05:24:37;;;;;;;12.82;5.32;;;;;;;20.13;84.47;99706.41;5049256;28;20744;-84
2022/08/05 05:27:02;;;;;;;12.03;6.93;;;;;;;20.16;85.72;99700.19;5049171;28;20159;-83
2022/08/05 05:29:28;;;;;;;12.20;7.60;;;;;;;20.12;84.29;99707.53;5048867;28;20273;-87
2022/08/05 05:31:54;;;;;;;12.23;6.90;;;;;;;20.27;83.53;99706.19;5049600;28;20416;-87
2022/08/05 05:34:19;;;;;;;16.05;8.07;;;;;;;20.42;83.64;99702.03;5049020;28;20086;-79
2022/08/05 05:36:44;;;;;;;14.52;9.05;;;;;;;20.29;84.00;99706.69;5047289;28;20064;-80
2022/08/05 05:39:10;;;;;;;14.68;9.23;;;;;;;20.39;82.97;99702.72;5047446;28;20100;-82
2022/08/05 05:41:35;;;;;;;14.03;9.27;;;;;;;20.34;84.07;99699.31;5047783;28;20533;-82
2022/08/05 05:44:00;;;;;;;17.53;9.23;;;;;;;20.26;84.13;99703.75;5048919;28;20497;-83
2022/08/05 05:46:26;;;;;;;16.02;9.00;;;;;;;20.34;84.04;99702.09;5048972;28;20309;-83
2022/08/05 05:48:51;;;;;;;15.95;8.80;;;;;;;20.45;83.62;99703.34;5047508;28;20032;-83
2022/08/05 05:51:23;;;;;;;14.03;9.53;;;;;;;20.33;83.48;99698.50;5048485;28;20060;-83
2022/08/05 05:53:50;;;;;;;12.60;8.20;;;;;;;20.38;83.78;99694.75;5047983;28;20379;-82
2022/08/05 05:56:15;;;;;;;14.40;10.00;;;;;;;20.26;84.29;99703.75;5046552;28;20033;-82
2022/08/05 05:58:41;;;;;;;15.90;10.10;;;;;;;20.16;84.59;99702.97;5043179;28;20056;-83
2022/08/05 06:01:06;;;;;;;19.25;11.48;;;;;;;20.30;84.38;99699.16;5030081;28;20561;-83
2022/08/05 06:03:31;;;;;;;22.25;13.38;;;;;;;20.42;83.14;99710.34;5047811;28;20040;-81
2022/08/05 06:05:57;;;;;;;23.98;12.70;;;;;;;20.45;82.95;99708.88;5044889;28;20606;-81
2022/08/05 06:08:22;;;;;;;25.52;13.70;;;;;;;20.24;83.67;99725.44;5046917;28;20086;-81
2022/08/05 06:10:47;;;;;;;24.83;14.50;;;;;;;20.08;85.29;99744.50;5047554;28;20028;-83
2022/08/05 06:13:13;;;;;;;21.47;12.87;;;;;;;20.16;84.15;99735.34;5048119;28;20053;-84
2022/08/05 06:15:38;;;;;;;21.80;13.90;;;;;;;20.02;84.89;99713.41;5047440;28;20756;-80
2022/08/05 06:18:03;;;;;;;25.10;14.87;;;;;;;20.06;85.07;99708.84;5046838;28;20408;-81
2022/08/05 06:20:28;;;;;;;24.35;15.20;;;;;;;20.16;85.09;99716.00;5046852;28;20724;-83
2022/08/05 06:22:54;;;;;;;22.23;14.20;;;;;;;20.20;85.42;99721.69;5047925;28;20035;-83
2022/08/05 06:25:19;;;;;;;28.38;16.33;;;;;;;20.27;83.80;99722.81;5046926;28;20490;-81
2022/08/05 06:27:44;;;;;;;27.43;15.03;;;;;;;20.25;84.28;99718.72;5048322;28;20468;-83
2022/08/05 06:30:14;;;;;;;27.23;16.17;;;;;;;20.06;84.92;99722.66;5045954;28;20282;-81
2022/08/05 06:32:40;;;;;;;28.33;16.42;;;;;;;19.99;84.76;99738.97;5046646;28;20281;-81
2022/08/05 06:35:06;;;;;;;21.92;13.63;;;;;;;20.05;84.77;99734.88;5046978;28;20033;-82
2022/08/05 06:37:31;;;;;;;29.42;14.30;;;;;;;20.20;84.34;99741.84;5046902;28;20033;-82
2022/08/05 06:39:56;;;;;;;25.67;14.32;;;;;;;20.15;84.90;99730.97;5044724;28;20044;-79
2022/08/05 06:42:22;;;;;;;24.37;12.63;;;;;;;20.26;84.11;99732.22;5045804;28;20523;-79
2022/08/05 06:44:47;;;;;;;16.33;10.05;;;;;;;20.29;84.24;99731.59;5046479;28;20260;-82
2022/08/05 06:47:12;;;;;;;12.50;7.38;;;;;;;20.17;83.31;99731.47;5046180;28;20033;-82
2022/08/05 06:49:37;;;;;;;15.80;7.55;;;;;;;19.97;83.43;99747.63;5045829;28;20040;-87
2022/08/05 06:52:03;;;;;;;11.20;6.33;;;;;;;19.88;84.45;99766.97;5048212;28;20044;-86
2022/08/05 06:54:28;;;;;;;10.80;5.93;;;;;;;19.94;86.21;99779.50;5048853;28;20322;-88
2022/08/05 06:56:54;;;;;;;10.07;5.95;;;;;;;20.00;84.84;99780.13;5050049;28;20112;-86
2022/08/05 06:59:19;;;;;;;10.73;6.93;;;;;;;19.96;85.09;99784.69;5049603;28;20036;-84
2022/08/05 07:01:44;;;;;;;13.90;7.83;;;;;;;19.88;84.60;99786.34;5050798;28;20491;-83
2022/08/05 07:04:10;;;;;;;10.88;7.22;;;;;;;19.97;85.59;99780.81;5049285;28;20262;-79
2022/08/05 07:06:35;;;;;;;10.85;6.55;;;;;;;19.94;83.93;99782.25;5047591;28;20460;-79
2022/08/05 07:09:01;;;;;;;10.98;6.57;;;;;;;19.99;84.44;99780.47;5044138;28;20037;-83
2022/08/05 07:11:29;;;;;;;13.10;8.10;;;;;;;19.91;83.59;99782.91;5030137;28;20100;-83
2022/08/05 07:16:48;;;;;;;12.98;7.65;;;;;;;19.79;84.90;99782.78;5047972;28;20550;-83
2022/08/05 07:19:16;;;;;;;13.93;9.40;;;;;;;19.81;84.51;99781.31;5045262;28;20040;-79
2022/08/05 07:21:41;;;;;;;13.82;9.05;;;;;;;19.75;85.04;99795.66;5045706;28;20467;-79
2022/08/05 07:24:07;;;;;;;17.42;10.00;;;;;;;19.88;84.08;99789.09;5046154;28;20043;-80
2022/08/05 07:26:32;;;;;;;26.30;11.82;;;;;;;19.79;82.72;99791.09;5046175;28;20044;-83
2022/08/05 07:28:58;;;;;;;20.83;11.93;;;;;;;19.66;83.04;99801.97;5045581;28;20046;-83
2022/08/05 07:31:23;;;;;;;35.83;13.05;;;;;;;19.73;82.87;99804.25;5046439;28;20082;-84
2022/08/05 07:33:48;;;;;;;21.83;12.02;;;;;;;19.66;83.47;99801.97;5047213;28;20044;-83
2022/08/05 07:36:14;;;;;;;22.90;11.47;;;;;;;19.48;83.55;99817.75;5047042;28;20044;-83
2022/08/05 07:38:40;;;;;;;20.92;12.02;;;;;;;19.51;83.58;99819.03;5046783;28;20308;-80
2022/08/05 07:41:07;;;;;;;21.42;11.52;;;;;;;19.27;83.70;99818.38;5045162;28;20091;-78
2022/08/05 07:43:32;;;;;;;27.17;13.75;;;;;;;19.40;83.24;99819.38;5044455;28;20059;-79
2022/08/05 07:45:57;;;;;;;23.80;11.73;;;;;;;19.33;83.33;99822.63;5044895;28;20064;-78
2022/08/05 07:48:23;;;;;;;19.10;11.02;;;;;;;19.39;83.85;99831.56;5043719;28;20292;-79
2022/08/05 07:50:48;;;;;;;17.70;11.52;;;;;;;19.41;83.54;99821.00;5046089;28;20484;-84
2022/08/05 07:53:13;;;;;;;14.75;9.43;;;;;;;19.42;84.16;99825.41;5047073;28;20519;-84
2022/08/05 07:55:39;;;;;;;24.38;12.20;;;;;;;19.45;83.30;99826.69;5046367;28;20033;-81
2022/08/05 07:58:04;;;;;;;25.60;11.27;;;;;;;19.38;84.09;99843.78;5046129;28;20037;-83
2022/08/05 08:00:29;;;;;;;20.00;11.15;;;;;;;19.29;84.60;99837.41;5046635;28;20278;-86
2022/08/05 08:02:55;;;;;;;24.73;10.95;;;;;;;19.29;83.98;99834.63;5046691;28;20032;-83
2022/08/05 08:05:20;;;;;;;16.67;10.35;;;;;;;19.39;82.49;99850.91;5046310;28;20039;-86
2022/08/05 08:07:46;;;;;;;18.92;10.93;;;;;;;19.34;81.60;99853.84;5046941;28;20376;-86
2022/08/05 08:10:12;;;;;;;15.38;11.10;;;;;;;19.34;82.24;99859.38;5044706;28;20033;-78
2022/08/05 08:12:37;;;;;;;16.10;9.57;;;;;;;19.18;81.87;99870.84;5044704;28;20047;-77
2022/08/05 08:15:03;;;;;;;12.32;8.73;;;;;;;19.18;82.33;99873.63;5044850;28;20056;-78
2022/08/05 08:17:30;;;;;;;15.15;9.27;;;;;;;19.08;82.26;99890.47;5042885;28;20466;-77
2022/08/05 08:19:55;;;;;;;15.75;9.88;;;;;;;19.20;82.63;99885.16;5043432;28;20095;-77
2022/08/05 08:22:25;;;;;;;15.05;9.48;;;;;;;19.23;81.85;99880.94;5044560;28;20037;-78
2022/08/05 08:24:51;;;;;;;11.30;7.32;;;;;;;19.32;79.78;99890.06;5045466;28;20345;-85
2022/08/05 08:27:16;;;;;;;14.82;8.82;;;;;;;19.02;81.12;99885.06;5047248;28;20132;-85
2022/08/05 08:29:43;;;;;;;13.27;6.28;;;;;;;19.10;82.61;99890.97;5048229;28;20044;-81
2022/08/05 08:32:08;;;;;;;10.43;6.25;;;;;;;19.51;80.46;99897.25;5050077;28;20091;-82
2022/08/05 08:34:33;;;;;;;16.45;7.55;;;;;;;19.50;80.02;99903.13;5050278;28;20041;-83
2022/08/05 08:36:59;;;;;;;26.23;8.10;;;;;;;19.37;80.69;99908.47;5050384;28;20115;-83
2022/08/05 08:39:24;;;;;;;12.98;6.47;;;;;;;19.31;80.43;99920.78;5048669;28;20075;-78
2022/08/05 08:41:51;;;;;;;16.87;6.33;;;;;;;18.94;81.12;99919.00;5048391;28;20037;-78
2022/08/05 08:44:18;;;;;;;17.13;9.15;;;;;;;19.05;81.17;99930.59;5048871;28;20264;-85
2022/08/05 08:46:46;;;;;;;11.05;6.50;;;;;;;19.01;81.90;99935.94;5050431;28;20450;-85
2022/08/05 08:49:13;;;;;;;10.02;6.28;;;;;;;19.21;80.52;99946.78;5049323;28;20567;-94
2022/08/05 08:51:40;;;;;;;9.70;6.50;;;;;;;19.17;81.56;99948.53;5051971;28;20036;-92
2022/08/05 08:54:05;;;;;;;13.40;6.18;;;;;;;19.18;79.52;99933.59;5050871;28;20503;-80
2022/08/05 08:56:31;;;;;;;14.07;7.13;;;;;;;19.29;78.64;99943.22;5048680;28;20025;-79
2022/08/05 08:58:58;;;;;;;10.95;5.90;;;;;;;19.36;79.40;99928.97;5045420;28;20025;-88
2022/08/05 09:01:24;;;;;;;9.80;5.07;;;;;;;19.37;78.40;99947.16;5030089;28;20041;-87
2022/08/05 09:03:52;;;;;;;12.60;6.88;;;;;;;19.28;79.12;99938.03;5030800;28;20034;-83
2022/08/05 09:06:17;;;;;;;8.73;5.30;;;;;;;19.33;79.57;99943.41;5031865;28;20041;-84
2022/08/05 09:08:43;;;;;;;12.45;7.07;;;;;;;19.31;80.07;99942.91;5032650;28;20102;-83
2022/08/05 09:11:08;;;;;;;10.57;6.30;;;;;;;19.44;80.04;99950.28;5048809;28;20041;-82
2022/08/05 09:13:37;;;;;;;10.77;5.95;;;;;;;19.26;78.67;99957.69;5048214;28;20053;-81
2022/08/05 09:16:03;;;;;;;10.35;4.28;;;;;;;19.20;79.90;99961.75;5049192;28;20041;-84
2022/08/05 09:18:29;;;;;;;10.40;3.65;;;;;;;19.16;79.51;99969.81;5048566;28;20044;-84
2022/08/05 09:20:54;;;;;;;10.80;4.22;;;;;;;19.21;78.65;99972.47;5049176;28;20063;-84
2022/08/05 09:23:20;;;;;;;13.75;5.93;;;;;;;19.35;78.70;99974.28;5043390;28;20520;-84
2022/08/05 09:26:09;;;;;;;8.02;4.30;;;;;;;19.34;78.37;99981.75;5049361;28;20035;-87
2022/08/05 09:28:37;;;;;;;7.10;3.70;;;;;;;19.45;76.84;99982.31;5064193;28;20056;-83
2022/08/05 09:31:05;;;;;;;6.50;2.85;;;;;;;19.34;76.84;99981.75;5050830;28;20032;-88
2022/08/05 09:33:31;;;;;;;5.32;2.78;;;;;;;19.40;76.02;99984.41;5050359;28;20183;-88
2022/08/05 09:35:56;;;;;;;7.75;4.03;;;;;;;19.43;75.59;99990.09;5051226;28;20083;-88
2022/08/05 09:38:22;;;;;;;8.40;3.70;;;;;;;19.51;76.35;99984.91;5052294;28;20514;-88
2022/08/05 09:40:48;;;;;;;7.95;3.88;;;;;;;19.64;75.73;99984.00;5048811;28;20036;-81
2022/08/05 09:43:30;;;;;;;6.93;3.60;;;;;;;19.77;74.59;99987.75;5049738;28;20032;-81
2022/08/05 09:45:55;;;;;;;7.47;3.55;;;;;;;19.85;74.74;99993.63;5047971;28;20029;-81
2022/08/05 09:48:26;;;;;;;11.85;3.83;;;;;;;19.90;75.01;99991.53;5044528;28;20060;-82
2022/08/05 09:50:54;;;;;;;8.63;4.13;;;;;;;19.86;75.57;99985.00;5048609;28;20399;-87
2022/08/05 09:53:20;;;;;;;8.02;3.38;;;;;;;19.60;75.86;99989.34;5049721;28;20052;-89
2022/08/05 09:55:49;;;;;;;6.78;3.45;;;;;;;19.75;75.85;99992.00;5048324;28;20464;-81
2022/08/05 09:58:14;;;;;;;9.27;3.95;;;;;;;19.83;76.29;99994.75;5047288;28;20033;-82
2022/08/05 10:01:03;;;;;;;6.43;3.38;;;;;;;19.76;76.67;99999.13;5047770;28;20037;-84
2022/08/05 10:03:28;;;;;;;7.30;4.75;;;;;;;19.67;77.16;99999.13;5048024;28;20056;-84
2022/08/05 10:06:08;;;;;;;9.60;4.32;;;;;;;19.61;76.38;100009.50;5047849;28;20052;-83
2022/08/05 10:08:36;;;;;;;11.07;5.13;;;;;;;19.57;76.38;100005.75;5047178;28;20033;-84
2022/08/05 10:11:13;;;;;;;28.73;4.85;;;;;;;19.44;76.95;100022.16;5044045;28;20084;-88
2022/08/05 10:13:38;;;;;;;9.80;4.47;;;;;;;19.35;77.17;100024.03;5029110;28;20049;-83
2022/08/05 10:16:05;;;;;;;10.90;5.90;;;;;;;19.16;77.92;100022.31;5027632;28;20029;-82
2022/08/05 10:18:31;;;;;;;27.02;6.75;;;;;;;19.44;77.62;100024.91;5038791;28;20060;-85
2022/08/05 10:21:01;;;;;;;11.50;4.38;;;;;;;19.38;76.90;100037.25;5047968;28;20131;-85
2022/08/05 10:23:33;;;;;;;10.50;5.63;;;;;;;19.37;77.47;100041.13;5045148;28;20033;-85
2022/08/05 10:26:01;;;;;;;9.85;3.92;;;;;;;19.40;78.48;100039.69;5048272;28;20488;-85
2022/08/05 10:28:28;;;;;;;9.48;5.43;;;;;;;19.38;78.41;100042.78;5047111;28;20033;-84
2022/08/05 10:30:54;;;;;;;10.88;4.32;;;;;;;19.65;79.02;100045.66;5043931;28;20495;-91
2022/08/05 10:33:22;;;;;;;12.25;4.43;;;;;;;19.63;77.66;100045.94;5028965;28;20038;-91
2022/08/05 10:35:48;;;;;;;11.90;5.55;;;;;;;19.52;76.82;100050.97;5028765;28;20467;-86
2022/08/05 10:38:14;;;;;;;7.85;4.45;;;;;;;19.51;78.72;100056.78;5028840;28;20026;-86
2022/08/05 10:40:48;;;;;;;11.93;5.18;;;;;;;19.64;78.17;100053.13;5045920;28;20044;-79
2022/08/05 10:43:40;;;;;;;11.75;5.78;;;;;;;19.71;78.62;100059.00;5045941;28;20044;-79
2022/08/05 10:46:07;;;;;;;8.52;4.65;;;;;;;19.86;79.12;100062.47;5048169;28;20032;-86
2022/08/05 10:48:35;;;;;;;12.00;5.60;;;;;;;20.12;78.83;100064.50;5046065;28;20041;-86
2022/08/05 10:51:03;;;;;;;9.98;4.65;;;;;;;20.10;76.81;100066.78;5046289;28;20032;-86
2022/08/05 10:53:40;;;;;;;14.43;5.07;;;;;;;20.28;77.84;100075.09;5046584;28;20040;-86
2022/08/05 10:56:12;;;;;;;9.48;4.53;;;;;;;20.25;75.07;100084.06;5048050;28;20480;-86
2022/08/05 10:58:51;;;;;;;10.20;4.53;;;;;;;20.28;75.27;100089.75;5045552;28;20033;-89
2022/08/05 11:01:17;;;;;;;8.77;4.53;;;;;;;20.42;75.12;100089.63;5027895;28;20087;-89
2022/08/05 11:04:06;;;;;;;10.38;4.88;;;;;;;20.67;74.44;100091.09;5028440;28;20033;-81
2022/08/05 11:06:32;;;;;;;10.30;5.03;;;;;;;20.86;74.14;100088.00;5026171;28;20111;-79
2022/08/05 11:09:17;;;;;;;8.40;3.92;;;;;;;20.76;75.24;100092.75;5031697;28;20037;-83
2022/08/05 11:11:48;;;;;;;8.68;4.35;;;;;;;20.94;72.79;100097.44;5046916;28;20388;-83
2022/08/05 11:14:25;;;;;;;6.78;3.33;;;;;;;21.22;71.80;100091.56;5038487;28;20053;-83
2022/08/05 11:17:25;;;;;;;7.30;3.28;;;;;;;21.17;69.25;100091.75;5053258;28;20464;-83
2022/08/05 11:19:52;;;;;;;7.75;4.20;;;;;;;21.15;69.03;100107.91;5043175;28;20067;-83
2022/08/05 11:22:37;;;;;;;6.47;2.97;;;;;;;21.33;69.81;100101.19;5043984;28;20065;-83
2022/08/05 11:25:31;;;;;;;6.30;4.05;;;;;;;21.31;69.06;100106.22;5044420;28;20033;-85
2022/08/05 11:28:16;;;;;;;9.45;3.53;;;;;;;21.25;67.89;100110.31;5047143;28;20032;-86
2022/08/05 11:31:11;;;;;;;9.38;3.90;;;;;;;21.65;68.71;100108.41;5044235;28;20036;-86
2022/08/05 11:33:40;;;;;;;5.80;2.92;;;;;;;21.68;65.87;100110.53;5036690;28;20594;-83